Time;durP1;ratioP1;P1;durP2;ratioP2;P2;SDS_P1;SDS_P2;PMS_P1;PMS_P2;Temp;Humidity;BMP_temperature;BMP_pressure;BME280_temperature;BME280_humidity;BME280_pressure;Samples;Min_cycle;Max_cycle;Signal;HPM_P1;HPM_P2
2023/12/10 00:02:10;;;;;;;0.80;0.67;;;;;;;7.16;100.00;94786.09;4984336;28;20282;-85
2023/12/10 00:04:38;;;;;;;0.90;0.70;;;;;;;7.16;100.00;94786.09;4989636;28;20207;-86
2023/12/10 00:07:05;;;;;;;0.60;0.60;;;;;;;7.14;100.00;94777.00;4989468;28;20283;-86
2023/12/10 00:09:31;;;;;;;0.63;0.63;;;;;;;7.12;100.00;94773.84;4989578;28;20202;-84
2023/12/10 00:12:04;;;;;;;0.87;0.80;;;;;;;7.12;100.00;94776.41;4989693;28;20224;-85
2023/12/10 00:14:30;;;;;;;0.70;0.70;;;;;;;7.12;100.00;94776.41;4989835;28;20576;-85
2023/12/10 00:16:57;;;;;;;0.70;0.70;;;;;;;7.15;100.00;94773.47;4985957;28;20632;-85
2023/12/10 00:19:23;;;;;;;0.70;0.70;;;;;;;7.18;100.00;94761.13;4988743;28;20221;-85
2023/12/10 00:21:51;;;;;;;0.63;0.63;;;;;;;7.19;100.00;94772.97;4975904;28;20212;-85
2023/12/10 00:24:27;;;;;;;0.90;0.90;;;;;;;7.20;100.00;94773.75;4970299;28;20212;-86
2023/12/10 00:27:01;;;;;;;0.70;0.70;;;;;;;7.21;100.00;94758.22;4983135;28;20208;-85
2023/12/10 00:29:36;;;;;;;1.10;1.00;;;;;;;7.23;100.00;94771.63;4989703;28;20203;-85
2023/12/10 00:32:08;;;;;;;0.93;0.90;;;;;;;7.23;100.00;94784.44;4985663;28;20226;-85
2023/12/10 00:34:34;;;;;;;0.87;0.87;;;;;;;7.19;100.00;94788.31;4992025;28;20215;-85
2023/12/10 00:37:02;;;;;;;0.80;0.80;;;;;;;7.20;100.00;94789.13;4993573;28;20247;-86
2023/12/10 00:39:29;;;;;;;0.90;0.80;;;;;;;7.23;100.00;94792.13;4993658;28;20204;-85
2023/12/10 00:41:56;;;;;;;0.70;0.70;;;;;;;7.26;100.00;94798.66;4993097;28;20760;-85
2023/12/10 00:44:31;;;;;;;1.40;0.80;;;;;;;7.26;100.00;94788.41;4992630;28;20200;-86
2023/12/10 00:47:00;;;;;;;0.70;0.70;;;;;;;7.30;100.00;94786.31;4993298;28;20346;-85
2023/12/10 00:49:26;;;;;;;0.60;0.60;;;;;;;7.29;100.00;94788.06;4990823;28;20207;-86
2023/12/10 00:51:53;;;;;;;1.27;0.70;;;;;;;7.25;100.00;94792.75;4992934;28;20229;-85
2023/12/10 00:54:21;;;;;;;1.03;0.80;;;;;;;7.24;100.00;94778.34;4993374;28;20196;-85
2023/12/10 00:56:56;;;;;;;0.60;0.60;;;;;;;7.28;100.00;94789.03;4993363;28;20226;-85
2023/12/10 00:59:33;;;;;;;1.53;0.80;;;;;;;7.34;100.00;94790.09;4992987;28;20696;-85
2023/12/10 01:02:08;;;;;;;0.90;0.80;;;;;;;7.28;100.00;94784.72;4993486;28;20600;-85
2023/12/10 01:04:35;;;;;;;0.53;0.53;;;;;;;7.29;100.00;94780.38;4990748;28;20199;-85
2023/12/10 01:07:02;;;;;;;0.60;0.60;;;;;;;7.26;100.00;94793.53;4992543;28;20692;-86
2023/12/10 01:09:30;;;;;;;0.50;0.50;;;;;;;7.21;100.00;94801.75;4992296;28;20207;-85
2023/12/10 01:11:56;;;;;;;0.60;0.60;;;;;;;7.26;100.00;94809.69;4992677;28;20242;-85
2023/12/10 01:14:24;;;;;;;0.60;0.60;;;;;;;7.21;100.00;94811.97;4992144;28;20669;-85
2023/12/10 01:16:51;;;;;;;0.83;0.60;;;;;;;7.24;100.00;94821.88;4984786;28;20219;-86
2023/12/10 01:19:17;;;;;;;2.30;0.67;;;;;;;7.24;100.00;94842.34;4992239;28;20206;-85
2023/12/10 01:21:43;;;;;;;1.03;0.70;;;;;;;7.30;100.00;94838.31;4990165;28;20226;-85
2023/12/10 01:24:16;;;;;;;1.03;0.60;;;;;;;7.35;100.00;94858.25;4992468;28;20217;-86
2023/12/10 01:26:49;;;;;;;0.60;0.60;;;;;;;7.30;100.00;94848.56;4992197;28;20203;-85
2023/12/10 01:29:20;;;;;;;1.23;0.73;;;;;;;7.28;100.00;94860.72;4992170;28;20226;-84
2023/12/10 01:31:47;;;;;;;0.60;0.60;;;;;;;7.29;100.00;94872.56;4992512;28;20223;-86
2023/12/10 01:34:13;;;;;;;0.80;0.60;;;;;;;7.25;100.00;94874.66;4986169;28;20670;-85
2023/12/10 01:36:40;;;;;;;2.90;0.80;;;;;;;7.32;100.00;94894.44;4973577;28;20227;-86
2023/12/10 01:39:06;;;;;;;2.07;0.70;;;;;;;7.39;100.00;94908.16;4984997;28;20632;-86
2023/12/10 01:41:42;;;;;;;0.97;0.77;;;;;;;7.35;100.00;94902.56;4977938;28;20789;-85
2023/12/10 01:44:13;;;;;;;1.00;0.70;;;;;;;7.33;100.00;94903.72;4991715;28;20214;-85
2023/12/10 01:46:45;;;;;;;0.63;0.63;;;;;;;7.33;100.00;94909.63;4992258;28;20196;-86
2023/12/10 01:49:12;;;;;;;0.63;0.63;;;;;;;7.37;100.00;94933.13;4991590;28;20708;-85
2023/12/10 01:51:39;;;;;;;0.70;0.70;;;;;;;7.31;100.00;94944.88;4991688;28;20238;-86
2023/12/10 01:54:06;;;;;;;0.70;0.70;;;;;;;7.25;100.00;94946.34;4986614;28;20199;-86
2023/12/10 01:56:33;;;;;;;1.20;0.80;;;;;;;7.20;100.00;94975.97;4991952;28;20230;-85
2023/12/10 01:59:00;;;;;;;2.77;1.00;;;;;;;7.21;100.00;95010.88;4991736;28;20200;-84
2023/12/10 02:01:31;;;;;;;1.37;0.80;;;;;;;7.20;100.00;95029.75;4991749;28;20295;-85
2023/12/10 02:04:05;;;;;;;1.23;0.70;;;;;;;7.23;100.00;95037.88;4991751;28;20202;-85
2023/12/10 02:06:36;;;;;;;1.43;0.80;;;;;;;7.13;100.00;95044.97;4991723;28;20214;-85
2023/12/10 02:09:09;;;;;;;2.23;0.90;;;;;;;7.17;100.00;95041.13;4989689;28;20214;-85
2023/12/10 02:11:37;;;;;;;1.43;0.90;;;;;;;7.11;100.00;95044.38;4991759;28;20232;-85
2023/12/10 02:14:04;;;;;;;1.07;0.80;;;;;;;7.14;100.00;95061.94;4978634;28;20611;-86
2023/12/10 02:16:32;;;;;;;2.30;0.87;;;;;;;7.09;100.00;95051.41;4972468;28;20220;-85
2023/12/10 02:18:58;;;;;;;3.23;0.80;;;;;;;7.11;100.00;95067.41;4972526;28;20662;-85
2023/12/10 02:21:26;;;;;;;2.30;0.80;;;;;;;7.17;100.00;95066.72;4975700;28;20216;-85
2023/12/10 02:24:00;;;;;;;1.20;0.67;;;;;;;7.12;100.00;95052.84;4991803;28;20199;-86
2023/12/10 02:26:28;;;;;;;1.07;0.83;;;;;;;7.02;100.00;95052.25;4989925;28;20205;-84
2023/12/10 02:29:03;;;;;;;0.80;0.60;;;;;;;7.00;100.00;95039.63;4991344;28;20199;-85
2023/12/10 02:31:30;;;;;;;1.97;0.70;;;;;;;6.90;100.00;95036.47;4991321;28;20242;-85
2023/12/10 02:33:56;;;;;;;0.97;0.57;;;;;;;6.84;100.00;95020.03;4991205;28;20669;-85
2023/12/10 02:36:23;;;;;;;0.53;0.40;;;;;;;6.80;100.00;95013.63;4991431;28;20696;-85
2023/12/10 02:38:49;;;;;;;0.53;0.43;;;;;;;6.82;100.00;95010.91;4991522;28;20681;-86
2023/12/10 02:41:16;;;;;;;0.40;0.40;;;;;;;6.79;100.00;95009.47;4988872;28;20282;-85
2023/12/10 02:43:47;;;;;;;0.93;0.60;;;;;;;6.83;100.00;95010.75;4990772;28;20207;-86
2023/12/10 02:46:15;;;;;;;0.60;0.60;;;;;;;6.81;100.00;95007.56;4991054;28;20206;-85
2023/12/10 02:48:42;;;;;;;1.37;0.50;;;;;;;6.74;100.00;95008.38;4992041;28;20553;-86
2023/12/10 02:51:08;;;;;;;1.70;0.60;;;;;;;6.72;100.00;95005.22;4991603;28;20310;-86
2023/12/10 02:53:35;;;;;;;0.37;0.37;;;;;;;6.71;100.00;94996.75;4991479;28;20207;-86
2023/12/10 02:56:01;;;;;;;1.33;0.90;;;;;;;6.76;100.00;94993.66;4990332;28;20211;-85
2023/12/10 02:58:28;;;;;;;0.80;0.60;;;;;;;6.74;100.00;94982.81;4988587;28;20200;-86
2023/12/10 03:01:00;;;;;;;1.40;0.80;;;;;;;6.74;100.00;94977.69;4990880;28;20787;-85
2023/12/10 03:03:26;;;;;;;1.23;0.80;;;;;;;6.80;100.00;94979.59;4990566;28;20386;-85
2023/12/10 03:05:52;;;;;;;1.37;0.70;;;;;;;6.77;100.00;94967.13;4990780;28;20211;-85
2023/12/10 03:08:19;;;;;;;3.23;0.87;;;;;;;6.73;100.00;94965.88;4982704;28;20574;-86
2023/12/10 03:10:45;;;;;;;1.27;0.80;;;;;;;6.68;100.00;94965.59;4978880;28;20732;-85
2023/12/10 03:13:15;;;;;;;1.93;1.10;;;;;;;6.75;100.00;94974.97;4971527;28;20554;-86
2023/12/10 03:15:47;;;;;;;4.00;0.90;;;;;;;6.68;100.00;94955.34;4975203;28;20219;-85
2023/12/10 03:18:21;;;;;;;4.33;1.10;;;;;;;6.62;100.00;94964.50;4990349;28;20228;-86
2023/12/10 03:20:55;;;;;;;2.43;0.87;;;;;;;6.67;100.00;94975.03;4990248;28;20223;-84
2023/12/10 03:23:21;;;;;;;1.83;0.90;;;;;;;6.66;100.00;94970.88;4989948;28;20206;-85
2023/12/10 03:25:48;;;;;;;3.63;1.23;;;;;;;6.66;100.00;94975.97;4990383;28;20204;-85
2023/12/10 03:28:14;;;;;;;3.33;1.00;;;;;;;6.64;100.00;94966.88;4990969;28;20628;-86
2023/12/10 03:30:41;;;;;;;4.37;1.10;;;;;;;6.59;100.00;94978.41;4988274;28;20235;-85
2023/12/10 03:33:07;;;;;;;4.70;1.17;;;;;;;6.56;100.00;94976.16;4990504;28;20215;-86
2023/12/10 03:35:41;;;;;;;2.83;0.90;;;;;;;6.55;100.00;94977.13;4989884;28;20215;-85
2023/12/10 03:38:07;;;;;;;4.07;1.10;;;;;;;6.57;100.00;94980.31;4990034;28;20223;-86
2023/12/10 03:40:34;;;;;;;3.83;1.20;;;;;;;6.57;100.00;94985.44;4989656;28;20235;-86
2023/12/10 03:43:01;;;;;;;2.80;1.20;;;;;;;6.62;100.00;94996.94;4989926;28;20218;-86
2023/12/10 03:45:28;;;;;;;3.30;1.03;;;;;;;6.59;100.00;95000.63;4987965;28;20290;-86
2023/12/10 03:47:54;;;;;;;4.53;0.97;;;;;;;6.59;100.00;95001.41;4989581;28;20214;-85
2023/12/10 03:50:26;;;;;;;2.33;1.00;;;;;;;6.57;100.00;95003.34;4989940;28;20207;-85
2023/12/10 03:52:57;;;;;;;2.67;0.90;;;;;;;6.51;100.00;95003.22;4990503;28;20204;-86
2023/12/10 03:55:33;;;;;;;4.37;1.20;;;;;;;6.60;100.00;95017.56;4989892;28;20734;-86
2023/12/10 03:58:05;;;;;;;3.37;1.00;;;;;;;6.52;100.00;95015.84;4989784;28;20234;-85
2023/12/10 04:00:32;;;;;;;1.93;0.93;;;;;;;6.55;100.00;95027.47;4989956;28;20827;-86
2023/12/10 04:02:58;;;;;;;2.40;0.90;;;;;;;6.51;100.00;95029.59;4987973;28;20230;-85
2023/12/10 04:05:25;;;;;;;2.07;1.00;;;;;;;6.48;100.00;95032.47;4989382;28;20728;-85
2023/12/10 04:07:51;;;;;;;4.67;0.97;;;;;;;6.42;100.00;95030.56;4976456;28;20234;-85
2023/12/10 04:10:19;;;;;;;2.73;0.90;;;;;;;6.44;100.00;95026.09;4993687;28;20727;-86
2023/12/10 04:12:51;;;;;;;3.67;1.10;;;;;;;6.43;100.00;95026.25;4993698;28;20203;-85
2023/12/10 04:15:17;;;;;;;5.13;1.03;;;;;;;6.36;100.00;95012.53;4993855;28;20211;-85
2023/12/10 04:17:44;;;;;;;3.90;2.00;;;;;;;6.36;100.00;95028.66;4992560;28;20315;-85
2023/12/10 04:20:11;;;;;;;1.60;0.97;;;;;;;6.36;100.00;95036.34;4980591;28;20649;-85
2023/12/10 04:22:37;;;;;;;2.20;1.00;;;;;;;6.39;100.00;95053.09;4994424;28;20230;-85
2023/12/10 04:25:04;;;;;;;2.87;1.57;;;;;;;6.39;100.00;95053.91;4993967;28;20207;-86
2023/12/10 04:27:49;;;;;;;2.30;1.00;;;;;;;6.40;100.00;95050.38;4993671;28;20258;-86
2023/12/10 04:30:19;;;;;;;3.97;1.00;;;;;;;6.42;100.00;95051.03;4993489;28;20662;-86
2023/12/10 04:32:46;;;;;;;4.17;1.17;;;;;;;6.43;100.00;95059.50;4993878;28;20299;-86
2023/12/10 04:35:20;;;;;;;4.30;1.20;;;;;;;6.45;100.00;95058.38;4991991;28;20207;-85
2023/12/10 04:37:46;;;;;;;3.77;1.20;;;;;;;6.44;100.00;95064.44;4993517;28;20233;-86
2023/12/10 04:40:13;;;;;;;3.50;1.30;;;;;;;6.47;99.93;95051.34;4993302;28;20207;-85
2023/12/10 04:42:40;;;;;;;5.83;1.40;;;;;;;6.50;100.00;95070.66;4993758;28;20211;-86
2023/12/10 04:45:08;;;;;;;3.60;1.30;;;;;;;6.55;99.58;95061.53;4993147;28;20208;-86
2023/12/10 04:47:37;;;;;;;5.20;1.20;;;;;;;6.66;99.67;95077.50;4993557;28;20199;-85
2023/12/10 04:50:08;;;;;;;3.50;1.40;;;;;;;6.63;99.37;95083.72;4991155;28;20199;-85
2023/12/10 04:52:37;;;;;;;2.70;1.60;;;;;;;6.63;100.00;95101.63;4993129;28;20698;-85
2023/12/10 04:55:06;;;;;;;3.67;1.40;;;;;;;6.69;100.00;95118.91;4992681;28;20588;-85
2023/12/10 04:57:41;;;;;;;4.63;1.87;;;;;;;6.70;100.00;95128.16;4992638;28;20756;-86
2023/12/10 05:00:16;;;;;;;6.93;1.40;;;;;;;6.57;100.00;95156.78;4992785;28;20204;-85
2023/12/10 05:02:47;;;;;;;2.90;1.33;;;;;;;6.51;100.00;95167.69;4984658;28;20195;-86
2023/12/10 05:05:22;;;;;;;5.13;1.93;;;;;;;6.52;100.00;95178.72;4992331;28;20303;-85
2023/12/10 05:07:52;;;;;;;3.50;1.27;;;;;;;6.48;100.00;95197.91;4987005;28;20191;-85
2023/12/10 05:10:18;;;;;;;4.23;1.80;;;;;;;6.34;100.00;95198.53;4992532;28;20264;-85
2023/12/10 05:12:45;;;;;;;8.07;1.70;;;;;;;6.36;100.00;95219.59;4993073;28;20209;-85
2023/12/10 05:15:14;;;;;;;6.87;2.17;;;;;;;6.34;100.00;95236.91;4992601;28;20218;-85
2023/12/10 05:17:40;;;;;;;5.67;1.43;;;;;;;6.33;100.00;95220.75;4993069;28;20290;-85
2023/12/10 05:20:08;;;;;;;8.80;2.70;;;;;;;6.33;100.00;95233.53;4992048;28;20202;-85
2023/12/10 05:22:43;;;;;;;8.70;2.13;;;;;;;6.33;100.00;95232.75;4988345;28;20231;-85
2023/12/10 05:25:15;;;;;;;9.03;2.10;;;;;;;6.41;100.00;95236.06;4992795;28;20203;-86
2023/12/10 05:27:42;;;;;;;7.27;2.00;;;;;;;6.44;100.00;95227.28;4992839;28;20221;-86
2023/12/10 05:30:10;;;;;;;8.30;2.20;;;;;;;6.44;100.00;95205.06;4991253;28;20207;-85
2023/12/10 05:32:38;;;;;;;9.20;2.47;;;;;;;6.50;100.00;95201.88;4972182;28;20737;-86
2023/12/10 05:35:06;;;;;;;9.27;1.97;;;;;;;6.49;100.00;95200.28;4972403;28;20200;-87
2023/12/10 05:37:32;;;;;;;7.80;2.13;;;;;;;6.53;100.00;95193.09;4972116;28;20588;-87
2023/12/10 05:39:59;;;;;;;9.50;2.23;;;;;;;6.58;100.00;95186.53;4975287;28;20200;-87
2023/12/10 05:42:34;;;;;;;6.33;1.90;;;;;;;6.59;100.00;95162.53;4971865;28;20714;-86
2023/12/10 05:45:10;;;;;;;6.50;2.27;;;;;;;6.62;99.17;95152.94;4974928;28;20267;-86
2023/12/10 05:47:36;;;;;;;10.77;2.13;;;;;;;6.64;98.81;95149.28;4981665;28;20200;-87
2023/12/10 05:50:15;;;;;;;9.40;2.07;;;;;;;6.66;98.74;95162.72;4979783;28;20632;-87
2023/12/10 05:52:46;;;;;;;11.30;2.43;;;;;;;6.66;97.08;95149.13;4982033;28;20294;-87
2023/12/10 05:55:20;;;;;;;7.80;1.87;;;;;;;6.59;95.75;95131.84;4984121;28;20203;-86
2023/12/10 05:57:54;;;;;;;7.50;1.90;;;;;;;6.62;95.17;95130.75;4986487;28;20224;-87
2023/12/10 06:00:31;;;;;;;7.37;2.07;;;;;;;6.62;94.29;95112.84;4973925;28;20200;-86
2023/12/10 06:02:57;;;;;;;7.60;2.13;;;;;;;6.69;94.39;95125.78;4991328;28;20206;-85
2023/12/10 06:05:25;;;;;;;5.20;2.00;;;;;;;6.85;95.40;95151.31;4993473;28;20250;-87
2023/12/10 06:07:52;;;;;;;6.93;2.20;;;;;;;6.82;92.75;95108.13;4986448;28;20220;-86
2023/12/10 06:10:18;;;;;;;10.50;2.63;;;;;;;7.05;100.00;95264.34;4978333;28;20210;-85
2023/12/10 06:12:51;;;;;;;8.07;2.13;;;;;;;7.17;95.50;95171.69;4988423;28;20199;-84
2023/12/10 06:15:26;;;;;;;7.53;2.13;;;;;;;7.04;90.78;95081.03;4983785;28;20210;-85
2023/12/10 06:18:13;;;;;;;7.37;1.93;;;;;;;6.79;90.32;95070.88;4991472;28;20310;-85
2023/12/10 06:20:41;;;;;;;5.87;2.00;;;;;;;6.69;90.90;95072.84;4990175;28;20231;-86
2023/12/10 06:23:08;;;;;;;6.63;1.87;;;;;;;6.77;91.15;95090.72;4984842;28;20210;-85
2023/12/10 06:25:43;;;;;;;10.20;2.57;;;;;;;6.76;90.78;95083.22;4975158;28;20193;-86
2023/12/10 06:28:14;;;;;;;9.00;2.13;;;;;;;6.72;91.02;95094.75;4986596;28;20204;-85
2023/12/10 06:30:47;;;;;;;7.60;2.13;;;;;;;6.64;91.02;95097.31;4989414;28;20228;-86
2023/12/10 06:33:15;;;;;;;8.03;2.17;;;;;;;6.65;91.49;95111.72;4995349;28;20203;-85
2023/12/10 06:35:43;;;;;;;7.50;2.33;;;;;;;6.70;91.29;95112.03;4995722;28;20207;-85
2023/12/10 06:38:10;;;;;;;9.23;2.40;;;;;;;6.68;91.46;95121.63;4995079;28;20736;-85
2023/12/10 06:40:42;;;;;;;4.70;1.97;;;;;;;6.66;91.21;95124.34;5006810;23;20202;-86
2023/12/10 06:43:09;;;;;;;9.40;1.90;;;;;;;6.63;91.43;95128.97;5010080;28;20191;-86
2023/12/10 06:45:35;;;;;;;8.23;2.30;;;;;;;6.66;91.79;95151.69;5012522;28;20207;-85
2023/12/10 06:48:07;;;;;;;7.53;2.20;;;;;;;6.70;92.11;95147.84;4999828;28;20222;-85
2023/12/10 06:50:36;;;;;;;8.60;2.10;;;;;;;6.62;92.08;95150.41;5008177;28;20259;-86
2023/12/10 06:53:10;;;;;;;6.97;2.03;;;;;;;6.57;92.71;95158.56;4984079;28;20199;-87
2023/12/10 06:55:39;;;;;;;6.43;1.73;;;;;;;6.60;92.61;95176.13;4989315;28;20210;-85
2023/12/10 06:58:08;;;;;;;9.47;2.27;;;;;;;6.62;92.61;95199.78;4985332;28;20220;-86
2023/12/10 07:00:34;;;;;;;10.40;2.23;;;;;;;6.59;92.80;95192.44;4975392;28;20572;-87
2023/12/10 07:03:01;;;;;;;6.83;2.17;;;;;;;6.58;92.79;95196.75;4972536;28;20670;-86
2023/12/10 07:05:27;;;;;;;6.37;1.43;;;;;;;6.66;92.26;95195.16;4973642;28;20228;-86
2023/12/10 07:07:53;;;;;;;9.03;2.00;;;;;;;6.66;91.77;95201.06;4983382;28;20274;-85
2023/12/10 07:10:21;;;;;;;4.53;1.90;;;;;;;6.64;91.93;95194.53;5003318;28;20391;-86
2023/12/10 07:12:47;;;;;;;8.90;1.77;;;;;;;6.61;92.27;95194.84;4992630;28;20267;-86
2023/12/10 07:15:14;;;;;;;7.80;2.23;;;;;;;6.59;92.22;95193.25;4988759;28;20206;-84
2023/12/10 07:17:40;;;;;;;5.83;2.10;;;;;;;6.59;91.90;95188.13;4979188;28;20597;-86
2023/12/10 07:20:09;;;;;;;7.30;2.23;;;;;;;6.58;91.70;95189.09;4990476;28;20207;-86
2023/12/10 07:22:41;;;;;;;8.07;2.20;;;;;;;6.66;90.87;95187.47;4977880;28;20216;-86
2023/12/10 07:25:09;;;;;;;4.77;1.80;;;;;;;6.69;90.25;95180.28;4971414;28;20200;-86
2023/12/10 07:27:36;;;;;;;8.97;2.03;;;;;;;6.71;89.83;95177.56;4989639;28;20218;-86
2023/12/10 07:30:07;;;;;;;12.40;2.63;;;;;;;6.72;89.62;95176.63;4989925;28;20211;-86
2023/12/10 07:32:37;;;;;;;5.60;1.90;;;;;;;6.74;89.17;95170.34;4982796;28;20307;-85
2023/12/10 07:35:08;;;;;;;7.33;2.03;;;;;;;6.81;88.53;95170.50;4983681;28;20203;-87
2023/12/10 07:37:49;;;;;;;6.50;2.47;;;;;;;6.88;89.05;95189.38;4988344;28;20625;-86
2023/12/10 07:40:22;;;;;;;6.63;2.10;;;;;;;6.93;88.38;95185.34;4988397;28;20342;-86
2023/12/10 07:43:04;;;;;;;8.13;2.53;;;;;;;7.06;88.18;95184.03;4988244;28;20207;-87
2023/12/10 07:45:32;;;;;;;8.00;2.00;;;;;;;7.15;86.71;95157.44;4988689;28;20199;-87
2023/12/10 07:48:01;;;;;;;8.23;2.60;;;;;;;7.25;84.76;95110.22;4986532;28;20211;-86
2023/12/10 07:50:27;;;;;;;11.67;2.40;;;;;;;7.23;83.83;95088.31;4988545;28;20207;-87
2023/12/10 07:52:55;;;;;;;9.10;2.87;;;;;;;7.09;83.22;95082.13;4970968;28;20200;-86
2023/12/10 07:55:21;;;;;;;10.67;4.87;;;;;;;7.09;83.39;95100.06;4972162;28;20195;-86
2023/12/10 07:57:56;;;;;;;10.73;4.40;;;;;;;7.04;83.38;95093.81;4987104;28;20216;-87
2023/12/10 08:00:25;;;;;;;9.33;2.53;;;;;;;7.05;83.94;95121.03;4971383;28;20196;-86
2023/12/10 08:02:51;;;;;;;8.90;2.60;;;;;;;7.13;83.85;95123.53;4984901;28;20282;-87
2023/12/10 08:18:03;;;;;;;8.57;3.00;;;;;;;7.03;84.29;95154.44;4995325;28;20199;-90
2023/12/10 17:27:31;;;;;;;5.13;2.17;;;;;;;9.08;59.54;94262.69;5004500;28;20677;-89
2023/12/10 17:30:36;;;;;;;4.37;2.23;;;;;;;9.08;60.29;94277.28;5005708;28;20214;-89
2023/12/10 17:33:26;;;;;;;6.07;2.50;;;;;;;9.04;60.58;94291.53;4961165;28;20200;-89
2023/12/10 17:42:48;;;;;;;5.30;2.20;;;;;;;8.96;59.74;94226.56;4945107;28;20235;-89
2023/12/10 17:45:17;;;;;;;6.40;2.87;;;;;;;8.98;60.01;94234.84;5003320;28;20233;-89
2023/12/10 17:47:45;;;;;;;9.57;5.20;;;;;;;8.94;59.92;94231.09;5010975;28;20207;-89
2023/12/10 17:50:25;;;;;;;7.37;3.97;;;;;;;8.90;59.47;94203.47;5010889;28;20286;-88
2023/12/10 17:52:52;;;;;;;6.83;3.03;;;;;;;8.85;59.57;94190.47;4994582;28;20554;-87
2023/12/10 17:55:18;;;;;;;11.97;5.53;;;;;;;8.80;59.90;94213.38;5010051;28;20222;-89
2023/12/10 17:57:44;;;;;;;8.10;4.00;;;;;;;8.80;60.25;94242.38;5010656;28;20668;-88
2023/12/10 18:00:13;;;;;;;5.00;3.10;;;;;;;8.79;60.32;94243.38;5008341;28;20226;-88
2023/12/10 18:02:50;;;;;;;6.40;3.47;;;;;;;8.79;60.44;94245.13;5010474;28;20293;-89
2023/12/10 18:05:17;;;;;;;5.77;3.53;;;;;;;8.81;60.15;94256.00;5010969;28;20597;-90
2023/12/10 18:07:43;;;;;;;5.07;3.30;;;;;;;8.80;60.47;94244.16;5007523;28;20563;-89
2023/12/10 18:10:11;;;;;;;7.57;3.43;;;;;;;8.83;60.57;94246.31;5006417;28;20195;-89
2023/12/10 18:12:52;;;;;;;7.23;3.07;;;;;;;8.79;60.17;94222.84;5010444;28;20199;-88
2023/12/10 18:15:19;;;;;;;6.87;3.40;;;;;;;8.81;60.46;94230.34;5004214;28;20229;-89
2023/12/10 18:17:45;;;;;;;5.73;3.27;;;;;;;8.82;60.52;94237.06;4995375;28;20204;-88
2023/12/10 18:20:13;;;;;;;7.33;3.80;;;;;;;8.80;60.46;94224.41;5005445;28;20226;-89
2023/12/10 18:22:40;;;;;;;7.17;3.60;;;;;;;8.77;60.73;94216.31;5007495;28;20627;-88
2023/12/10 18:25:15;;;;;;;6.07;3.37;;;;;;;8.77;61.11;94231.72;5007485;28;20228;-88
2023/12/10 18:27:42;;;;;;;6.97;3.77;;;;;;;8.75;60.78;94233.69;5009705;28;20198;-89
2023/12/10 18:30:09;;;;;;;6.27;3.60;;;;;;;8.74;61.00;94229.53;5009116;28;20207;-88
2023/12/10 18:32:36;;;;;;;6.67;3.77;;;;;;;8.72;61.08;94226.38;5007848;28;20213;-88
2023/12/10 18:35:13;;;;;;;;;;;;;;;;;;;;;
2023/12/10 18:37:41;;;;;;;8.27;4.20;;;;;;;8.61;60.89;94208.03;5010122;28;20198;-88
2023/12/10 18:40:09;;;;;;;6.67;4.30;;;;;;;8.61;61.11;94210.63;5009327;28;20218;-86
2023/12/10 18:42:41;;;;;;;8.80;4.50;;;;;;;8.64;60.80;94201.72;5009469;28;20213;-87
2023/12/10 18:51:15;;;;;;;5.27;3.53;;;;;;;8.63;59.81;94130.88;5027671;23;20226;-88
2023/12/10 18:53:43;;;;;;;8.03;3.97;;;;;;;8.59;59.98;94112.53;5016859;28;20324;-87
2023/12/10 18:56:09;;;;;;;5.47;3.73;;;;;;;8.55;59.49;94080.56;5029007;28;21005;-88
2023/12/10 19:01:52;;;;;;;5.73;3.50;;;;;;;8.48;59.11;94036.19;5026329;28;20680;-89
2023/12/10 19:04:19;;;;;;;4.93;3.43;;;;;;;8.47;58.81;94010.75;5026248;28;20694;-89
2023/12/10 19:06:45;;;;;;;4.53;2.53;;;;;;;8.41;58.79;93984.16;5029103;28;20205;-89
2023/12/10 19:09:13;;;;;;;5.73;2.80;;;;;;;8.42;58.70;93974.69;5028864;28;20205;-89
2023/12/10 19:11:40;;;;;;;4.47;2.83;;;;;;;8.39;58.26;93947.66;5028182;28;20691;-90
2023/12/10 19:14:34;;;;;;;4.73;2.80;;;;;;;8.36;58.15;93934.47;5031554;28;20206;-89
2023/12/10 19:17:21;;;;;;;6.10;2.87;;;;;;;8.33;58.22;93912.56;5024339;28;20195;-90
2023/12/10 19:19:47;;;;;;;3.80;2.80;;;;;;;8.29;58.32;93898.56;5026904;28;20723;-90
2023/12/10 19:22:14;;;;;;;5.03;2.60;;;;;;;8.33;58.18;93897.19;5015836;28;20570;-88
2023/12/10 19:25:21;;;;;;;;;;;;;;;;;;;;;
2023/12/10 19:31:30;;;;;;;3.57;2.50;;;;;;;8.34;57.87;93910.78;4960183;28;20233;-90
2023/12/10 19:34:21;;;;;;;4.30;2.70;;;;;;;8.30;57.45;93880.41;5020029;28;20277;-89
2023/12/10 19:36:48;;;;;;;3.47;2.70;;;;;;;8.25;57.50;93864.88;5025186;28;20213;-90
2023/12/10 19:39:17;;;;;;;3.77;2.50;;;;;;;8.27;57.28;93864.66;5020694;28;20199;-87
2023/12/10 19:41:45;;;;;;;4.50;2.30;;;;;;;8.22;57.48;93852.44;5008892;28;20203;-89
2023/12/10 19:44:37;;;;;;;4.07;2.63;;;;;;;8.26;57.20;93840.00;5008706;28;20238;-87
2023/12/10 19:47:52;;;;;;;5.97;2.70;;;;;;;8.27;57.34;93829.53;5018777;28;20202;-88
2023/12/10 19:50:19;;;;;;;3.17;2.40;;;;;;;8.23;57.10;93807.09;5016236;28;20199;-87
2023/12/10 19:52:46;;;;;;;3.53;2.40;;;;;;;8.27;57.57;93823.66;5020985;28;20710;-88
2023/12/10 19:55:15;;;;;;;3.30;2.40;;;;;;;8.23;57.24;93825.03;5018604;28;20250;-88
2023/12/10 19:57:43;;;;;;;4.10;2.30;;;;;;;8.19;56.89;93796.47;5021356;28;20205;-88
2023/12/10 20:00:16;;;;;;;3.00;2.20;;;;;;;8.20;56.88;93785.22;5019849;28;20224;-87
2023/12/10 20:02:43;;;;;;;3.23;2.20;;;;;;;8.21;57.02;93778.31;5017508;28;20209;-90
2023/12/10 20:05:09;;;;;;;4.87;2.27;;;;;;;8.17;56.51;93743.81;5026178;28;20225;-88
2023/12/10 20:07:36;;;;;;;2.37;2.03;;;;;;;8.22;56.30;93744.00;5021953;28;20694;-91
2023/12/10 20:10:02;;;;;;;4.53;2.50;;;;;;;8.15;55.95;93713.28;5018961;28;20356;-90
2023/12/10 20:12:29;;;;;;;3.00;2.20;;;;;;;8.18;55.78;93705.19;5016925;28;20198;-91
2023/12/10 20:15:04;;;;;;;3.10;2.47;;;;;;;8.14;55.48;93686.06;5016378;28;20250;-90
2023/12/10 20:17:30;;;;;;;4.27;2.23;;;;;;;8.15;55.51;93676.59;5012874;28;20226;-90
2023/12/10 20:19:57;;;;;;;3.57;2.57;;;;;;;8.14;55.60;93655.31;5020981;28;20774;-90
2023/12/10 20:22:23;;;;;;;2.40;2.20;;;;;;;8.09;55.43;93629.53;5015977;28;20199;-89
2023/12/10 20:24:50;;;;;;;2.30;2.00;;;;;;;8.14;55.60;93664.78;5017563;28;20218;-90
2023/12/10 20:27:28;;;;;;;4.63;2.40;;;;;;;8.12;55.47;93647.06;5019710;28;20207;-90
2023/12/10 20:29:54;;;;;;;2.60;2.20;;;;;;;8.14;55.48;93654.53;5016931;28;20574;-91
2023/12/10 20:32:24;;;;;;;3.57;1.93;;;;;;;8.12;55.16;93628.31;5018447;28;20210;-91
2023/12/10 20:34:50;;;;;;;3.17;2.20;;;;;;;8.08;54.95;93602.31;5022700;28;20232;-90
2023/12/10 20:37:33;;;;;;;3.80;2.23;;;;;;;8.13;55.07;93617.09;5017637;28;20204;-90
2023/12/10 20:40:13;;;;;;;2.77;2.03;;;;;;;8.13;55.00;93605.06;5021213;28;20222;-89
2023/12/10 20:42:54;;;;;;;2.63;1.70;;;;;;;8.15;54.64;93584.34;5021259;28;20202;-89
2023/12/10 20:45:26;;;;;;;1.77;1.60;;;;;;;8.18;54.26;93584.72;5027884;28;20246;-90
2023/12/10 20:48:39;;;;;;;4.90;2.10;;;;;;;8.19;54.49;93573.47;5027432;28;20206;-90
2023/12/10 20:51:33;;;;;;;2.13;1.83;;;;;;;8.25;54.67;93580.31;5024762;28;20222;-90
2023/12/10 20:57:36;;;;;;;2.07;1.60;;;;;;;8.24;54.34;93568.50;4968025;28;20577;-89
2023/12/10 21:00:42;;;;;;;2.00;1.80;;;;;;;8.29;54.21;93552.47;4892981;29;20321;-90
2023/12/10 21:07:21;;;;;;;5.03;1.83;;;;;;;8.28;54.01;93584.22;4948167;29;20216;-89
2023/12/10 21:13:44;;;;;;;2.43;1.83;;;;;;;8.24;53.71;93542.88;4950323;29;20212;-88
2023/12/10 21:16:22;;;;;;;2.63;1.80;;;;;;;8.32;53.17;93519.53;4950326;29;20749;-87
2023/12/10 21:19:09;;;;;;;2.47;1.77;;;;;;;8.39;53.28;93523.81;4950459;28;20201;-88
2023/12/10 21:21:36;;;;;;;2.47;1.60;;;;;;;8.44;53.38;93511.16;4949308;28;20327;-87
2023/12/10 21:24:15;;;;;;;3.23;1.40;;;;;;;8.51;53.36;93517.75;4949754;28;20205;-89
2023/12/10 21:26:47;;;;;;;2.00;1.80;;;;;;;8.57;53.05;93490.47;4951333;29;20207;-89
2023/12/10 21:29:26;;;;;;;2.17;1.70;;;;;;;8.66;53.28;93500.22;4955818;28;20885;-90
2023/12/10 21:32:42;;;;;;;1.47;1.30;;;;;;;8.71;52.67;93498.78;5029872;28;20197;-87
2023/12/10 21:38:42;;;;;;;2.70;1.70;;;;;;;8.60;53.33;93488.25;4935636;28;20214;-90
2023/12/10 21:41:25;;;;;;;2.10;1.80;;;;;;;8.63;53.64;93515.28;4965718;28;20698;-90
2023/12/10 21:46:40;;;;;;;2.20;1.70;;;;;;;8.64;53.24;93475.78;4970028;28;20226;-90
2023/12/10 21:49:10;;;;;;;1.80;1.63;;;;;;;8.61;52.86;93460.84;5015077;28;20198;-90
2023/12/10 21:51:37;;;;;;;3.07;1.80;;;;;;;8.57;53.48;93504.06;5031090;28;20313;-90
2023/12/10 21:54:30;;;;;;;2.50;1.97;;;;;;;8.64;53.76;93515.06;5021499;28;20341;-90